首页
METAR-TAF:

METAR-TAF

机场 :

安德鲁斯空军基地

Camp Springs, 马里兰州, 美国

纬度: 38-49N, 经度: 076-51W, 海拔: 86米

当前天气观测

该预报发布于56分钟前的23:56 UTC
风速5节,风向东转东南
温度 20°C
湿度 68%
气压 1021 hPa
能見度: 16.1公里
天空无云

METAR: KADW 252356Z AUTO 11005KT 10SM CLR 20/14 A3014 RMK AO2 SLP212 T01980137 10232 20198 55003 $

时间: 20:52 (00:52 UTC)

预报

该预报发布于7小时和52分钟前的17:00 UTC
预报有效从25日的 17点(UTC)到 26日的 23点(UTC)
风速6节,风向多变
能见度10公里或以上
多云层高于2500英尺
阴天层高于5000英尺
成为
从 25日的 19点(UTC)到 25日的 20点(UTC)
风速6节,风向多变
能见度10公里或以上
多云层高于3000英尺
成为
从 26日的 02点(UTC)到 26日的 03点(UTC)
风速3节,风向
能见度10公里或以上
多云层高于2500英尺
成为
从 26日的 08点(UTC)到 26日的 09点(UTC)
风速3节,风向
能見度: 6000
散云层高于300英尺
多云层高于2500英尺
轻雾
成为
从 26日的 10点(UTC)到 26日的 11点(UTC)
风速3节,风向东转东北
能見度: 4800
多云层高于300英尺
阴天层高于2500英尺
轻雾
成为
从 26日的 15点(UTC)到 26日的 16点(UTC)
风速9节,风向东转东南
能见度10公里或以上
散云层高于1800英尺

TAF: KADW 251700Z 2517/2623 VRB06KT 9999 BKN025 OVC050 QNH3018INS BECMG 2519/2520 VRB06KT 9999 BKN030 QNH3015INS BECMG 2602/2603 09003KT 9999 BKN025 QNH3019INS BECMG 2608/2609 09003KT 6000 BR SCT003 BKN025 QNH3019INS BECMG 2610/2611 07003KT 4800 BR BKN003 OVC025 QNH3022INS BECMG 2615/2616 11009KT 9999 NSW SCT018 QNH3019INS TX22/2521Z TN15/2609Z

超过4000个机场的气象观测和天气预报(METAR&TAF报告)。

可查询的气象台以黄色和红色小点在地图上表示。

将鼠标移到小点上方,可查看气象台名称。

然后点击查看天气观测和预报。

如需切换地图:点击带黑十字的绿色按钮放大地图;点击带横线的绿色按钮缩小地图;或者点击绿色箭头查看邻近地区的地图。


METAR-TAF: